Time;durP1;ratioP1;P1;durP2;ratioP2;P2;SDS_P1;SDS_P2;PMS_P1;PMS_P2;Temp;Humidity;BMP_temperature;BMP_pressure;BME280_temperature;BME280_humidity;BME280_pressure;Samples;Min_cycle;Max_cycle;Signal;HPM_P1;HPM_P2
2022/03/15 00:01:12;;;;;;;26.23;14.40;;;8.30;93.50;;;;;;5033651;28;20048;-78
2022/03/15 00:03:38;;;;;;;24.47;14.37;;;8.40;93.50;;;;;;5032175;28;20060;-78
2022/03/15 00:06:04;;;;;;;25.67;14.60;;;8.30;93.50;;;;;;5048928;28;20413;-78
2022/03/15 00:08:30;;;;;;;26.60;13.63;;;8.20;93.50;;;;;;5033400;28;20029;-78
2022/03/15 00:10:57;;;;;;;26.90;14.03;;;8.20;93.50;;;;;;5048564;28;20110;-78
2022/03/15 00:13:24;;;;;;;25.70;13.97;;;8.20;93.60;;;;;;5033302;28;20116;-78
2022/03/15 00:15:50;;;;;;;23.63;13.33;;;8.30;93.60;;;;;;5048928;28;20033;-78
2022/03/15 00:18:16;;;;;;;31.50;14.70;;;8.20;93.60;;;;;;5048565;28;20029;-78
2022/03/15 00:20:41;;;;;;;26.40;13.50;;;8.20;93.60;;;;;;5048888;28;20128;-77
2022/03/15 00:23:07;;;;;;;24.20;13.30;;;8.20;93.70;;;;;;5033582;28;20055;-78
2022/03/15 00:25:34;;;;;;;23.97;13.40;;;8.10;93.70;;;;;;5048762;28;20394;-78
2022/03/15 00:28:00;;;;;;;23.17;14.17;;;8.10;93.80;;;;;;5033310;28;20543;-77
2022/03/15 00:30:26;;;;;;;26.50;13.33;;;8.10;93.80;;;;;;5048449;28;20087;-78
2022/03/15 00:32:52;;;;;;;30.10;13.57;;;8.10;93.90;;;;;;5032037;28;20113;-78
2022/03/15 00:35:25;;;;;;;26.57;13.80;;;8.10;94.00;;;;;;5033158;28;20123;-78
2022/03/15 00:37:53;;;;;;;28.10;13.60;;;8.00;94.00;;;;;;5047719;28;20057;-78
2022/03/15 00:40:20;;;;;;;22.87;12.53;;;8.00;94.10;;;;;;5031826;28;20512;-78
2022/03/15 00:42:52;;;;;;;23.27;13.07;;;8.00;94.10;;;;;;5053540;28;20037;-78
2022/03/15 00:45:19;;;;;;;26.73;13.97;;;8.10;94.20;;;;;;5037139;28;20087;-78
2022/03/15 00:47:45;;;;;;;27.20;13.77;;;8.10;94.20;;;;;;5053036;28;20029;-78
2022/03/15 00:50:11;;;;;;;28.87;15.03;;;8.00;94.20;;;;;;5036914;28;20044;-77
2022/03/15 00:52:37;;;;;;;26.40;13.53;;;8.10;94.30;;;;;;5037170;28;20386;-78
2022/03/15 00:55:04;;;;;;;26.93;13.83;;;8.00;94.20;;;;;;5036949;28;20079;-78
2022/03/15 00:57:31;;;;;;;25.90;13.50;;;8.00;94.30;;;;;;5036848;28;20209;-78
2022/03/15 00:59:57;;;;;;;23.30;13.07;;;8.00;94.40;;;;;;5052079;28;20124;-78
2022/03/15 01:02:23;;;;;;;24.00;13.43;;;7.90;94.40;;;;;;5052187;28;20120;-78
2022/03/15 01:04:49;;;;;;;26.83;13.30;;;8.00;94.50;;;;;;5035432;28;20060;-78
2022/03/15 01:07:15;;;;;;;23.50;12.20;;;8.10;94.60;;;;;;5035479;28;20021;-78
2022/03/15 01:09:41;;;;;;;23.70;13.33;;;7.90;94.50;;;;;;5036831;28;20037;-78
2022/03/15 01:12:07;;;;;;;22.10;12.97;;;7.90;94.60;;;;;;5051916;28;20090;-78
2022/03/15 01:14:34;;;;;;;26.73;13.77;;;7.90;94.60;;;;;;5036474;28;20025;-78
2022/03/15 01:16:59;;;;;;;23.53;12.97;;;7.90;94.60;;;;;;5036542;28;20021;-78
2022/03/15 01:19:25;;;;;;;23.80;13.40;;;7.90;94.70;;;;;;5036464;28;20025;-78
2022/03/15 01:21:52;;;;;;;25.20;14.30;;;7.90;94.70;;;;;;5052361;28;20041;-78
2022/03/15 01:24:18;;;;;;;28.27;14.30;;;7.80;94.70;;;;;;5051729;28;20029;-78
2022/03/15 01:26:44;;;;;;;23.63;13.83;;;7.90;94.80;;;;;;5036375;28;20394;-78
2022/03/15 01:29:10;;;;;;;25.37;14.80;;;7.80;94.80;;;;;;5051976;28;20030;-78
2022/03/15 01:31:35;;;;;;;21.17;13.93;;;7.80;94.90;;;;;;5051517;28;20061;-78
2022/03/15 01:34:01;;;;;;;28.33;15.87;;;7.80;94.90;;;;;;5036214;28;20033;-78
2022/03/15 01:36:27;;;;;;;25.07;14.30;;;7.70;95.00;;;;;;5051507;28;20030;-77
2022/03/15 01:38:53;;;;;;;28.07;14.73;;;7.80;95.10;;;;;;5051638;28;20052;-77
2022/03/15 01:41:21;;;;;;;28.07;15.40;;;7.80;95.10;;;;;;5051461;28;20112;-78
2022/03/15 01:43:47;;;;;;;27.80;15.20;;;7.80;95.20;;;;;;5034751;28;20041;-77
2022/03/15 01:46:13;;;;;;;28.30;15.20;;;7.80;95.50;;;;;;5051312;28;20029;-78
2022/03/15 01:48:39;;;;;;;26.37;15.27;;;7.80;95.30;;;;;;5051544;28;20033;-77
2022/03/15 01:51:06;;;;;;;25.50;15.20;;;7.80;95.30;;;;;;5051225;28;20061;-78
2022/03/15 01:53:32;;;;;;;26.20;15.63;;;7.90;95.40;;;;;;5035430;28;20104;-78
2022/03/15 01:55:59;;;;;;;28.67;16.57;;;7.90;95.40;;;;;;5035938;28;20032;-78
2022/03/15 01:58:25;;;;;;;27.60;15.93;;;7.80;95.40;;;;;;5051017;28;20049;-77
2022/03/15 02:00:51;;;;;;;26.43;15.13;;;7.90;95.40;;;;;;5035946;28;20032;-77
2022/03/15 02:03:17;;;;;;;24.50;15.00;;;7.90;95.40;;;;;;5051011;28;20389;-78
2022/03/15 02:05:43;;;;;;;24.87;15.53;;;7.90;95.40;;;;;;5034382;28;20041;-77
2022/03/15 02:08:10;;;;;;;28.13;15.80;;;7.90;95.40;;;;;;5035897;28;20136;-78
2022/03/15 02:10:36;;;;;;;28.63;15.47;;;8.00;95.40;;;;;;5034100;28;20032;-77
2022/03/15 02:13:02;;;;;;;31.27;17.17;;;7.90;95.40;;;;;;5051024;28;20117;-77
2022/03/15 02:15:27;;;;;;;29.70;16.53;;;7.90;95.50;;;;;;5050837;28;20104;-77
2022/03/15 02:17:53;;;;;;;28.60;15.97;;;7.90;95.40;;;;;;5050801;28;20083;-77
2022/03/15 02:20:19;;;;;;;32.07;16.47;;;7.90;95.50;;;;;;5035628;28;20438;-77
2022/03/15 02:22:45;;;;;;;25.97;16.07;;;7.90;95.50;;;;;;5050811;28;20033;-77
2022/03/15 02:25:12;;;;;;;26.30;16.90;;;7.90;95.60;;;;;;5050615;28;20394;-78
2022/03/15 02:27:38;;;;;;;27.47;16.63;;;8.00;95.60;;;;;;5035394;28;20521;-78
2022/03/15 02:30:05;;;;;;;25.83;14.73;;;8.00;95.50;;;;;;5033975;28;20037;-78
2022/03/15 02:32:31;;;;;;;28.20;15.80;;;7.90;95.40;;;;;;5033955;28;20014;-78
2022/03/15 02:34:57;;;;;;;28.87;15.60;;;7.90;95.50;;;;;;5035433;28;20485;-78
2022/03/15 02:37:24;;;;;;;25.33;14.93;;;7.90;95.50;;;;;;5050477;28;20029;-78
2022/03/15 02:39:50;;;;;;;28.87;15.53;;;7.90;95.80;;;;;;5034029;28;20478;-77
2022/03/15 02:42:17;;;;;;;27.77;16.10;;;8.00;95.60;;;;;;5034892;28;20029;-78
2022/03/15 02:44:42;;;;;;;26.10;15.43;;;7.90;95.60;;;;;;5034879;28;20033;-78
2022/03/15 02:47:08;;;;;;;29.43;16.33;;;7.90;95.70;;;;;;5033620;28;20029;-78
2022/03/15 02:49:34;;;;;;;32.20;16.77;;;7.90;95.70;;;;;;5033436;28;20036;-78
2022/03/15 02:51:59;;;;;;;28.60;16.17;;;8.00;95.80;;;;;;5050019;28;20037;-78
2022/03/15 02:54:25;;;;;;;31.43;17.47;;;8.00;96.00;;;;;;5050227;28;20080;-78
2022/03/15 02:56:51;;;;;;;30.70;18.13;;;8.00;95.70;;;;;;5034443;28;20555;-78
2022/03/15 02:59:17;;;;;;;30.53;16.43;;;8.00;95.80;;;;;;5053181;28;20068;-78
2022/03/15 03:01:44;;;;;;;24.93;15.83;;;8.00;95.70;;;;;;5054373;28;20049;-78
2022/03/15 03:04:10;;;;;;;28.80;16.20;;;8.00;95.70;;;;;;5052553;28;20085;-78
2022/03/15 03:06:37;;;;;;;26.53;15.50;;;8.00;95.70;;;;;;5054499;28;20056;-78
2022/03/15 03:09:03;;;;;;;30.80;17.33;;;8.00;95.60;;;;;;5036663;28;20029;-78
2022/03/15 03:11:29;;;;;;;30.20;16.33;;;8.00;95.60;;;;;;5052979;28;20480;-78
2022/03/15 03:13:57;;;;;;;28.10;15.90;;;8.00;95.70;;;;;;5054286;28;20052;-78
2022/03/15 03:16:24;;;;;;;31.17;17.57;;;7.90;95.60;;;;;;5054111;28;20021;-78
2022/03/15 03:18:54;;;;;;;31.43;16.67;;;8.00;95.70;;;;;;5054160;28;20056;-78
2022/03/15 03:21:21;;;;;;;29.47;16.93;;;7.90;95.70;;;;;;5037100;28;20059;-78
2022/03/15 03:23:46;;;;;;;26.80;16.77;;;7.90;95.70;;;;;;5054072;28;20036;-77
2022/03/15 03:26:12;;;;;;;27.17;15.73;;;7.90;95.70;;;;;;5054083;28;20032;-78
2022/03/15 03:28:38;;;;;;;27.40;16.30;;;7.90;95.70;;;;;;5036093;28;20021;-78
2022/03/15 03:31:07;;;;;;;28.90;16.83;;;7.90;95.70;;;;;;5052627;28;20048;-78
2022/03/15 03:33:33;;;;;;;29.43;16.60;;;7.90;95.70;;;;;;5052597;28;20024;-78
2022/03/15 03:35:59;;;;;;;28.00;17.43;;;7.90;95.80;;;;;;5053866;28;20397;-78
2022/03/15 03:38:25;;;;;;;28.93;16.83;;;7.90;95.70;;;;;;5052534;28;20023;-78
2022/03/15 03:40:51;;;;;;;27.67;17.13;;;8.10;95.80;;;;;;5053868;28;20076;-78
2022/03/15 03:43:16;;;;;;;29.93;17.60;;;7.90;95.70;;;;;;5052392;28;20056;-78
2022/03/15 03:45:42;;;;;;;26.20;15.63;;;7.90;95.70;;;;;;5052457;28;20120;-78
2022/03/15 03:48:08;;;;;;;29.67;17.37;;;7.90;95.80;;;;;;5035920;28;20116;-78
2022/03/15 03:50:35;;;;;;;30.40;17.03;;;7.90;95.80;;;;;;5052225;28;20060;-78
2022/03/15 03:53:03;;;;;;;27.90;15.83;;;7.90;95.80;;;;;;5035670;28;20541;-78
2022/03/15 03:55:29;;;;;;;29.30;18.23;;;7.90;95.80;;;;;;5053538;28;20056;-78
2022/03/15 03:57:55;;;;;;;28.87;16.87;;;7.90;95.80;;;;;;5052074;28;20566;-78
2022/03/15 04:00:21;;;;;;;27.20;16.03;;;7.90;95.80;;;;;;5035542;28;20120;-78
2022/03/15 04:02:47;;;;;;;30.83;17.03;;;7.90;95.80;;;;;;5052074;28;20452;-78
2022/03/15 04:05:13;;;;;;;28.77;16.57;;;7.90;96.10;;;;;;5053320;28;20032;-78
2022/03/15 04:07:40;;;;;;;30.47;17.60;;;7.80;95.80;;;;;;5053336;28;20504;-78
2022/03/15 04:10:08;;;;;;;27.87;17.47;;;7.90;95.90;;;;;;5052139;28;20031;-78
2022/03/15 04:12:34;;;;;;;28.03;16.90;;;7.90;95.90;;;;;;5036256;28;20021;-78
2022/03/15 04:15:00;;;;;;;29.97;16.80;;;7.90;95.90;;;;;;5053220;28;20117;-78
2022/03/15 04:17:26;;;;;;;30.10;17.40;;;7.90;95.90;;;;;;5053142;28;20056;-78
2022/03/15 04:19:53;;;;;;;33.03;19.10;;;7.90;96.00;;;;;;5035450;28;20021;-77
2022/03/15 04:22:19;;;;;;;31.50;18.50;;;7.80;96.00;;;;;;5035326;28;20474;-78
2022/03/15 04:24:45;;;;;;;32.13;17.87;;;7.80;96.10;;;;;;5053171;28;20533;-77
2022/03/15 04:27:11;;;;;;;26.17;15.53;;;7.90;96.10;;;;;;5052227;28;20114;-78
2022/03/15 04:29:37;;;;;;;30.03;18.13;;;7.90;96.00;;;;;;5051961;28;20116;-78
2022/03/15 04:32:03;;;;;;;27.07;17.80;;;7.90;96.10;;;;;;5050694;28;20071;-78
2022/03/15 04:34:30;;;;;;;26.80;15.87;;;7.90;96.10;;;;;;5052255;28;20032;-78
2022/03/15 04:36:59;;;;;;;29.30;16.97;;;7.90;96.00;;;;;;5052981;28;20096;-78
2022/03/15 04:39:25;;;;;;;26.93;16.47;;;7.90;96.00;;;;;;5052115;28;20499;-78
2022/03/15 04:41:51;;;;;;;28.27;16.77;;;7.90;96.00;;;;;;5053295;28;20032;-78
2022/03/15 04:44:17;;;;;;;28.50;16.87;;;7.90;96.00;;;;;;5035408;28;20075;-78
2022/03/15 04:46:43;;;;;;;34.03;16.77;;;7.90;96.00;;;;;;5052043;28;20033;-78
2022/03/15 04:49:09;;;;;;;28.20;16.90;;;7.90;96.00;;;;;;5051645;28;20407;-78
2022/03/15 04:51:35;;;;;;;29.63;16.67;;;8.00;96.00;;;;;;5052788;28;20035;-78
2022/03/15 04:54:01;;;;;;;27.97;15.77;;;7.90;95.90;;;;;;5052930;28;20052;-78
2022/03/15 04:56:27;;;;;;;27.53;17.30;;;7.90;95.90;;;;;;5051811;28;20354;-77
2022/03/15 04:58:52;;;;;;;26.57;16.33;;;7.90;95.90;;;;;;5053352;28;20033;-78
2022/03/15 05:01:18;;;;;;;28.00;16.93;;;7.90;96.00;;;;;;5018624;28;20078;-78
2022/03/15 05:03:44;;;;;;;26.87;16.53;;;7.90;95.90;;;;;;5051561;28;20029;-78
2022/03/15 05:06:10;;;;;;;24.73;15.57;;;7.90;95.80;;;;;;5051409;28;20027;-78
2022/03/15 05:08:35;;;;;;;25.93;16.40;;;8.00;95.90;;;;;;5051496;28;20392;-77
2022/03/15 05:11:07;;;;;;;26.00;15.73;;;7.90;95.80;;;;;;5051499;28;20562;-77
2022/03/15 05:13:40;;;;;;;24.97;14.13;;;7.90;95.80;;;;;;5051418;28;20041;-78
2022/03/15 05:16:09;;;;;;;23.60;14.47;;;7.90;95.80;;;;;;5051440;28;20035;-78
2022/03/15 05:18:35;;;;;;;26.20;15.13;;;7.80;95.80;;;;;;5052478;28;20481;-78
2022/03/15 05:21:02;;;;;;;29.53;15.57;;;7.80;95.80;;;;;;5051306;28;20029;-77
2022/03/15 05:23:28;;;;;;;23.53;15.37;;;7.80;95.80;;;;;;5052533;28;20057;-78
2022/03/15 05:25:54;;;;;;;26.00;15.63;;;7.80;95.80;;;;;;5051770;28;20057;-78
2022/03/15 05:28:20;;;;;;;26.60;15.53;;;7.80;95.80;;;;;;5054077;28;20033;-78
2022/03/15 05:30:45;;;;;;;24.17;14.47;;;7.70;95.80;;;;;;5055286;28;20444;-78
2022/03/15 05:33:11;;;;;;;25.97;15.77;;;7.80;95.80;;;;;;5056145;28;20029;-77
2022/03/15 05:35:36;;;;;;;25.10;14.23;;;7.80;95.80;;;;;;5055039;28;20025;-78
2022/03/15 05:38:02;;;;;;;27.17;14.97;;;7.80;95.80;;;;;;5054765;28;20025;-78
2022/03/15 05:40:28;;;;;;;26.43;16.00;;;7.80;95.80;;;;;;5056105;28;20096;-77
2022/03/15 05:42:54;;;;;;;24.87;15.37;;;7.80;95.80;;;;;;5055318;28;20531;-77
2022/03/15 05:45:20;;;;;;;27.30;15.23;;;7.80;95.70;;;;;;5038173;28;20036;-78
2022/03/15 05:47:45;;;;;;;24.97;14.90;;;7.80;95.70;;;;;;5037926;28;20033;-77
2022/03/15 05:50:11;;;;;;;22.00;15.20;;;7.80;95.70;;;;;;5055671;28;20086;-77
2022/03/15 05:52:37;;;;;;;24.93;14.80;;;7.80;95.70;;;;;;5055816;28;20029;-77
2022/03/15 05:55:03;;;;;;;22.73;14.13;;;7.80;95.80;;;;;;5054713;28;20111;-78
2022/03/15 05:57:28;;;;;;;25.43;14.17;;;7.80;95.80;;;;;;5054114;28;20072;-78
2022/03/15 05:59:54;;;;;;;25.83;14.53;;;7.90;95.80;;;;;;5055674;28;20039;-78
2022/03/15 06:02:19;;;;;;;27.47;14.53;;;7.80;95.80;;;;;;5037737;28;20389;-77
2022/03/15 06:04:45;;;;;;;26.43;13.90;;;7.80;95.70;;;;;;5055599;28;20037;-78
2022/03/15 06:07:11;;;;;;;27.73;14.50;;;7.80;95.70;;;;;;5054111;28;20053;-78
2022/03/15 06:09:36;;;;;;;25.10;14.23;;;7.80;95.70;;;;;;5054044;28;20441;-78
2022/03/15 06:12:03;;;;;;;25.10;15.43;;;7.80;95.70;;;;;;5054904;28;20033;-78
2022/03/15 06:14:29;;;;;;;22.47;14.13;;;7.90;95.70;;;;;;5052826;28;20021;-77
2022/03/15 06:16:54;;;;;;;25.13;14.47;;;7.90;95.60;;;;;;5055196;28;20500;-78
2022/03/15 06:19:20;;;;;;;23.77;14.83;;;7.90;95.70;;;;;;5053667;28;20477;-78
2022/03/15 06:21:45;;;;;;;22.23;14.10;;;7.80;95.60;;;;;;5053980;28;20033;-78
2022/03/15 06:24:11;;;;;;;19.87;12.93;;;7.90;95.70;;;;;;5051766;28;20037;-78
2022/03/15 06:26:38;;;;;;;24.10;13.70;;;7.90;95.60;;;;;;5037522;28;20030;-78
2022/03/15 06:29:05;;;;;;;22.13;13.83;;;7.80;95.50;;;;;;5035761;28;20029;-78
2022/03/15 06:31:33;;;;;;;26.03;14.80;;;8.00;95.80;;;;;;5026049;28;20061;-78
2022/03/15 06:33:59;;;;;;;22.00;13.73;;;7.90;95.50;;;;;;5050411;28;20088;-78
2022/03/15 06:36:25;;;;;;;24.10;14.30;;;8.00;95.50;;;;;;5049454;28;20082;-78
2022/03/15 06:38:51;;;;;;;25.97;15.47;;;8.00;95.50;;;;;;5052454;28;20461;-79
2022/03/15 06:41:17;;;;;;;22.73;14.50;;;8.00;95.50;;;;;;5053159;28;20035;-78
2022/03/15 06:43:43;;;;;;;26.13;13.77;;;8.00;95.50;;;;;;5053593;28;20116;-78
2022/03/15 06:46:09;;;;;;;21.47;13.63;;;8.00;95.50;;;;;;5054572;28;20021;-78
2022/03/15 06:48:35;;;;;;;23.57;14.63;;;8.10;95.40;;;;;;5034315;28;20024;-78
2022/03/15 06:51:02;;;;;;;25.03;13.73;;;8.10;95.40;;;;;;5017348;28;20029;-78
2022/03/15 06:53:31;;;;;;;24.23;14.77;;;8.10;95.40;;;;;;5033470;28;20027;-78
2022/03/15 06:55:57;;;;;;;20.63;14.30;;;8.10;95.40;;;;;;5033754;28;20025;-78
2022/03/15 06:58:23;;;;;;;22.97;15.07;;;8.10;95.30;;;;;;5034695;28;20057;-79
2022/03/15 07:00:48;;;;;;;21.90;14.30;;;8.10;95.30;;;;;;5033303;28;20022;-77
2022/03/15 07:03:15;;;;;;;21.67;13.97;;;8.10;95.30;;;;;;5045864;28;20033;-78
2022/03/15 07:05:41;;;;;;;23.90;14.80;;;8.10;95.30;;;;;;5047402;28;20025;-77
2022/03/15 07:08:07;;;;;;;21.27;13.50;;;8.10;95.30;;;;;;5054190;28;20036;-77
2022/03/15 07:10:34;;;;;;;22.17;13.53;;;8.20;95.40;;;;;;5052393;28;20035;-76
2022/03/15 07:13:00;;;;;;;24.63;14.90;;;8.20;95.40;;;;;;5053117;28;20029;-76
2022/03/15 07:15:26;;;;;;;30.50;14.43;;;8.30;95.40;;;;;;5053782;28;20079;-77
2022/03/15 07:17:53;;;;;;;25.43;14.30;;;8.30;95.40;;;;;;5052217;28;20029;-77
2022/03/15 07:20:20;;;;;;;25.03;13.50;;;8.30;95.40;;;;;;5052735;28;20013;-77
2022/03/15 07:22:46;;;;;;;24.93;13.67;;;8.40;95.30;;;;;;5035781;28;20504;-77
2022/03/15 07:25:12;;;;;;;19.47;12.77;;;8.40;95.20;;;;;;5052890;28;20033;-77
2022/03/15 07:27:38;;;;;;;20.77;12.97;;;8.40;95.20;;;;;;5053841;28;20025;-77
2022/03/15 07:30:05;;;;;;;20.07;13.43;;;8.40;95.10;;;;;;5052614;28;20029;-76
2022/03/15 07:32:30;;;;;;;20.90;12.80;;;8.50;95.10;;;;;;5052111;28;20425;-77
2022/03/15 07:34:56;;;;;;;22.57;13.70;;;8.50;95.00;;;;;;5052498;28;20016;-77
2022/03/15 07:37:22;;;;;;;18.67;12.23;;;8.50;94.90;;;;;;5053941;28;20067;-77
2022/03/15 07:39:48;;;;;;;19.30;11.90;;;8.50;94.80;;;;;;5052720;28;20147;-77
2022/03/15 07:42:14;;;;;;;24.20;12.87;;;8.70;94.70;;;;;;5052743;28;20033;-77
2022/03/15 07:44:42;;;;;;;19.07;12.27;;;8.60;94.60;;;;;;5052672;28;20025;-77
2022/03/15 07:47:10;;;;;;;21.37;12.50;;;8.60;94.60;;;;;;5036414;28;20040;-77
2022/03/15 07:49:36;;;;;;;19.63;12.40;;;8.60;94.60;;;;;;5052328;28;20470;-77
2022/03/15 07:52:03;;;;;;;20.70;13.60;;;8.70;94.60;;;;;;5054002;28;20037;-77
2022/03/15 07:54:29;;;;;;;21.00;12.83;;;8.70;94.50;;;;;;5053492;28;20027;-77
2022/03/15 07:56:54;;;;;;;20.13;13.50;;;8.80;94.50;;;;;;5053415;28;20055;-77
2022/03/15 07:59:20;;;;;;;19.90;13.30;;;8.80;94.40;;;;;;5052332;28;20108;-77
2022/03/15 08:01:46;;;;;;;23.73;13.40;;;8.80;94.40;;;;;;5052494;28;20056;-77
2022/03/15 08:04:11;;;;;;;17.73;12.43;;;8.80;94.30;;;;;;5035553;28;20032;-77
2022/03/15 08:06:37;;;;;;;18.97;12.30;;;8.90;94.30;;;;;;5035692;28;20120;-77
2022/03/15 08:09:03;;;;;;;21.63;13.40;;;8.90;94.30;;;;;;5053704;28;20079;-77
2022/03/15 08:11:29;;;;;;;20.27;11.67;;;9.00;94.30;;;;;;5051863;28;20435;-77
2022/03/15 08:13:55;;;;;;;18.97;11.20;;;9.00;94.20;;;;;;5053213;28;20068;-77
2022/03/15 08:16:22;;;;;;;18.40;11.73;;;9.00;94.10;;;;;;5052253;28;20485;-77
2022/03/15 08:18:49;;;;;;;17.27;11.03;;;9.10;94.10;;;;;;5035718;28;20065;-77
2022/03/15 08:21:15;;;;;;;16.17;10.23;;;9.10;94.00;;;;;;5052062;28;20033;-77
2022/03/15 08:23:41;;;;;;;20.93;11.80;;;9.10;94.20;;;;;;5053639;28;20021;-77
2022/03/15 08:26:07;;;;;;;16.60;10.70;;;9.20;93.80;;;;;;5019425;28;20029;-77
2022/03/15 08:28:33;;;;;;;18.33;11.80;;;9.30;93.80;;;;;;5053585;28;20596;-77
2022/03/15 08:30:59;;;;;;;17.97;10.67;;;9.20;93.70;;;;;;5052137;28;20120;-77
2022/03/15 08:33:25;;;;;;;20.03;10.43;;;9.20;93.60;;;;;;5035558;28;20017;-77
2022/03/15 08:35:51;;;;;;;21.20;9.87;;;9.40;93.60;;;;;;5053207;28;20384;-77
2022/03/15 08:38:17;;;;;;;18.90;10.27;;;9.40;93.50;;;;;;5053341;28;20033;-77
2022/03/15 08:40:43;;;;;;;17.57;9.90;;;9.40;93.40;;;;;;5035785;28;20059;-76
2022/03/15 08:43:09;;;;;;;19.20;9.37;;;9.40;93.30;;;;;;5053308;28;20033;-77
2022/03/15 08:45:35;;;;;;;16.73;10.10;;;9.50;93.20;;;;;;5051907;28;20021;-76
2022/03/15 08:48:01;;;;;;;15.60;10.40;;;9.60;93.20;;;;;;5051708;28;20495;-77
2022/03/15 08:50:27;;;;;;;16.77;9.27;;;9.60;93.10;;;;;;5053156;28;20029;-76
2022/03/15 08:52:55;;;;;;;15.53;9.57;;;9.70;93.00;;;;;;5051987;28;20423;-76
2022/03/15 08:55:21;;;;;;;16.20;9.40;;;9.70;92.90;;;;;;5051722;28;20033;-76
2022/03/15 08:57:47;;;;;;;13.10;8.60;;;9.80;92.80;;;;;;5052898;28;20045;-76
2022/03/15 09:00:13;;;;;;;14.73;9.37;;;9.70;92.70;;;;;;5051849;28;20029;-76
2022/03/15 09:02:39;;;;;;;15.73;8.53;;;9.90;92.70;;;;;;5032070;28;20018;-76
2022/03/15 09:05:05;;;;;;;16.67;7.93;;;9.90;92.50;;;;;;5039151;28;20021;-76
2022/03/15 09:07:31;;;;;;;15.80;8.70;;;10.00;92.40;;;;;;5055282;28;20029;-76
2022/03/15 09:09:57;;;;;;;16.97;8.00;;;10.00;92.30;;;;;;5055772;28;20017;-76
2022/03/15 09:12:23;;;;;;;12.90;8.37;;;10.10;92.30;;;;;;5055325;28;20107;-76
2022/03/15 09:14:49;;;;;;;17.10;8.53;;;10.20;92.20;;;;;;5039121;28;20076;-76
2022/03/15 09:17:15;;;;;;;19.40;9.10;;;10.20;92.10;;;;;;5055346;28;20021;-76
2022/03/15 09:19:42;;;;;;;16.03;7.53;;;10.20;92.00;;;;;;5057047;28;20029;-76
2022/03/15 09:22:08;;;;;;;25.97;8.43;;;10.30;91.90;;;;;;5055539;28;20077;-77
2022/03/15 09:24:36;;;;;;;11.87;7.67;;;10.40;91.80;;;;;;5055733;28;20469;-77
2022/03/15 09:27:02;;;;;;;16.97;7.60;;;10.50;91.70;;;;;;5056652;28;20036;-77
2022/03/15 09:29:28;;;;;;;20.97;8.60;;;10.60;91.50;;;;;;5056367;28;20473;-77
2022/03/15 09:31:54;;;;;;;15.03;7.43;;;10.70;91.40;;;;;;5038315;28;20029;-77
2022/03/15 09:34:22;;;;;;;14.30;7.50;;;10.70;91.20;;;;;;5055300;28;20029;-78
2022/03/15 09:36:48;;;;;;;15.23;7.67;;;10.80;91.20;;;;;;5055152;28;20420;-78
2022/03/15 09:39:14;;;;;;;14.50;6.83;;;10.80;91.10;;;;;;5055244;28;20029;-78
2022/03/15 09:41:40;;;;;;;12.47;7.13;;;10.80;91.20;;;;;;5054848;28;20086;-77
2022/03/15 09:44:11;;;;;;;13.80;7.30;;;10.90;91.10;;;;;;5056221;28;20131;-77
2022/03/15 09:46:51;;;;;;;15.77;7.30;;;10.90;90.70;;;;;;5022793;28;20029;-77
2022/03/15 09:49:18;;;;;;;14.07;7.07;;;11.00;90.60;;;;;;5054843;28;20025;-77
2022/03/15 09:51:46;;;;;;;13.75;7.30;;;11.00;90.50;;;;;;5054714;28;20432;-78
2022/03/15 09:54:13;;;;;;;16.75;6.97;;;11.10;90.20;;;;;;5056368;28;20013;-79
2022/03/15 09:56:39;;;;;;;13.60;7.68;;;11.10;90.20;;;;;;5054890;28;20021;-76
2022/03/15 09:59:15;;;;;;;13.90;6.90;;;11.20;90.00;;;;;;5038077;28;20500;-78
2022/03/15 10:01:42;;;;;;;10.90;7.15;;;11.20;89.90;;;;;;5054447;28;20021;-78
2022/03/15 10:04:08;;;;;;;17.63;7.55;;;11.30;89.50;;;;;;5055671;28;20025;-78
2022/03/15 10:06:38;;;;;;;19.70;7.75;;;11.30;89.20;;;;;;5054598;28;20087;-78
2022/03/15 10:09:08;;;;;;;15.07;8.23;;;11.40;88.80;;;;;;5055508;28;20037;-79
2022/03/15 10:11:34;;;;;;;13.82;8.10;;;11.40;88.30;;;;;;5054195;28;20025;-78
2022/03/15 10:14:00;;;;;;;16.08;8.57;;;11.40;88.10;;;;;;5055252;28;20032;-78
2022/03/15 10:16:31;;;;;;;14.57;7.20;;;11.40;87.80;;;;;;5054646;28;20436;-78
2022/03/15 10:18:58;;;;;;;13.07;7.13;;;11.40;87.40;;;;;;5054957;28;20059;-78
2022/03/15 10:21:25;;;;;;;16.80;8.57;;;11.50;86.80;;;;;;5055462;28;20032;-78
2022/03/15 10:23:58;;;;;;;16.27;7.82;;;11.60;86.60;;;;;;5053954;28;20028;-78
2022/03/15 10:26:25;;;;;;;11.95;7.15;;;11.60;86.50;;;;;;5054302;28;20525;-78
2022/03/15 10:28:56;;;;;;;13.60;7.10;;;11.60;86.50;;;;;;5053923;28;20029;-78
2022/03/15 10:31:25;;;;;;;16.92;7.20;;;11.60;86.40;;;;;;5053922;28;20040;-78
2022/03/15 10:33:53;;;;;;;12.68;6.22;;;11.70;86.20;;;;;;5053783;28;20465;-78
2022/03/15 10:36:21;;;;;;;12.90;6.93;;;11.80;86.00;;;;;;5055058;28;20032;-78
2022/03/15 10:38:52;;;;;;;13.63;6.72;;;11.80;85.70;;;;;;5055047;28;20484;-78
2022/03/15 10:41:19;;;;;;;12.98;6.55;;;11.80;85.50;;;;;;5053725;28;20025;-78
2022/03/15 10:43:54;;;;;;;11.27;5.82;;;11.90;85.30;;;;;;5053698;28;20036;-78
2022/03/15 10:46:25;;;;;;;14.30;6.10;;;12.00;85.10;;;;;;5054857;28;20032;-78
2022/03/15 10:49:03;;;;;;;15.00;6.10;;;12.00;84.70;;;;;;5053746;28;20040;-78
2022/03/15 10:51:29;;;;;;;12.57;6.25;;;12.10;84.70;;;;;;5053567;28;20478;-79
2022/03/15 10:54:02;;;;;;;13.30;5.35;;;12.20;84.30;;;;;;5052747;28;20044;-78
2022/03/15 10:56:28;;;;;;;10.85;5.20;;;12.20;83.80;;;;;;5054776;28;20021;-78
2022/03/15 10:59:05;;;;;;;12.65;5.47;;;12.30;83.50;;;;;;5054439;28;20369;-78
2022/03/15 11:01:38;;;;;;;14.38;5.88;;;12.40;83.10;;;;;;5054841;28;20416;-78
2022/03/15 11:04:06;;;;;;;12.13;5.13;;;12.40;82.10;;;;;;5054726;28;20111;-78
2022/03/15 11:06:38;;;;;;;11.82;5.88;;;12.40;81.80;;;;;;5054487;28;20029;-78
2022/03/15 11:09:19;;;;;;;14.00;4.90;;;12.40;81.30;;;;;;5053142;28;20116;-78
2022/03/15 11:11:53;;;;;;;9.35;4.15;;;12.50;80.60;;;;;;5051576;28;20117;-78
2022/03/15 11:14:54;;;;;;;11.90;4.88;;;12.50;79.90;;;;;;5054328;28;20021;-78
2022/03/15 11:17:21;;;;;;;11.55;5.18;;;12.50;79.70;;;;;;5053992;28;20025;-78
2022/03/15 11:19:49;;;;;;;11.73;5.43;;;12.60;79.30;;;;;;5054283;28;20040;-78
2022/03/15 11:22:17;;;;;;;13.25;5.93;;;12.60;79.10;;;;;;5052873;28;20021;-78
2022/03/15 11:24:49;;;;;;;15.13;5.85;;;12.60;78.90;;;;;;5035915;28;20021;-78
2022/03/15 11:27:16;;;;;;;13.43;4.82;;;12.60;78.80;;;;;;5054208;28;20389;-78
2022/03/15 11:29:44;;;;;;;14.38;5.53;;;12.60;78.60;;;;;;5052794;28;20017;-78
2022/03/15 11:32:12;;;;;;;12.30;5.75;;;12.70;78.20;;;;;;5053808;28;20082;-78
2022/03/15 11:34:40;;;;;;;11.43;5.07;;;12.70;77.80;;;;;;5054179;28;20056;-78
2022/03/15 11:37:11;;;;;;;10.02;4.38;;;12.70;77.80;;;;;;5053957;28;20461;-79
2022/03/15 11:39:40;;;;;;;14.98;5.20;;;12.70;77.80;;;;;;5052891;28;20025;-78
2022/03/15 11:42:11;;;;;;;9.82;4.30;;;12.70;77.90;;;;;;5054002;28;20028;-78
2022/03/15 11:44:59;;;;;;;9.40;4.85;;;12.80;77.70;;;;;;5054048;28;20112;-78
2022/03/15 11:47:51;;;;;;;11.85;4.85;;;12.80;77.60;;;;;;5053854;28;20033;-78
2022/03/15 11:50:26;;;;;;;10.95;4.50;;;12.80;77.40;;;;;;5053757;28;20108;-79
2022/03/15 11:53:21;;;;;;;10.77;4.88;;;12.80;77.50;;;;;;5053632;28;20037;-79
2022/03/15 11:55:56;;;;;;;9.10;4.60;;;12.90;77.30;;;;;;5053254;28;20037;-78
2022/03/15 11:58:28;;;;;;;11.50;5.13;;;12.90;77.20;;;;;;5052722;28;20044;-77
2022/03/15 12:00:57;;;;;;;12.00;4.78;;;13.00;77.00;;;;;;5053530;28;20028;-79
2022/03/15 12:03:30;;;;;;;8.65;4.20;;;13.00;77.40;;;;;;5053422;28;20489;-78
2022/03/15 12:05:57;;;;;;;12.07;5.28;;;13.10;76.50;;;;;;5053392;28;20487;-79
2022/03/15 12:08:26;;;;;;;16.85;5.65;;;13.10;76.40;;;;;;5053590;28;20053;-78
2022/03/15 12:10:58;;;;;;;9.32;4.78;;;13.10;76.30;;;;;;5053251;28;20381;-78
2022/03/15 12:13:43;;;;;;;14.95;4.78;;;13.20;76.00;;;;;;5051819;28;20017;-78
2022/03/15 12:16:25;;;;;;;10.73;4.50;;;13.20;75.80;;;;;;5051977;28;20081;-79
2022/03/15 12:19:23;;;;;;;10.52;4.97;;;13.20;75.50;;;;;;5053269;28;20124;-78
2022/03/15 12:21:54;;;;;;;12.15;4.57;;;13.30;75.50;;;;;;5053239;28;20025;-78
2022/03/15 12:24:30;;;;;;;10.65;4.90;;;13.30;75.40;;;;;;5053191;28;20447;-78
2022/03/15 12:26:59;;;;;;;14.38;5.05;;;13.30;74.90;;;;;;5053587;28;20361;-78
2022/03/15 12:29:27;;;;;;;13.63;5.35;;;13.30;74.80;;;;;;5053328;28;20029;-78
2022/03/15 12:31:53;;;;;;;10.38;5.07;;;13.30;74.70;;;;;;5035406;28;20025;-78
2022/03/15 12:34:19;;;;;;;10.45;5.47;;;13.30;74.50;;;;;;5051745;28;20040;-79
2022/03/15 12:36:58;;;;;;;13.65;5.78;;;13.30;74.20;;;;;;5055785;28;20040;-79
2022/03/15 12:39:27;;;;;;;12.85;5.13;;;13.40;74.30;;;;;;5055951;28;20021;-79